Time;durP1;ratioP1;P1;durP2;ratioP2;P2;SDS_P1;SDS_P2;PMS_P1;PMS_P2;Temp;Humidity;BMP_temperature;BMP_pressure;BME280_temperature;BME280_humidity;BME280_pressure;Samples;Min_cycle;Max_cycle;Signal;HPM_P1;HPM_P2
2023/04/03 00:00:40;;;;;;;1999.90;999.90;;;4.20;97.50;;;;;;4937638;29;20055;-79
2023/04/03 00:03:06;;;;;;;1999.90;999.90;;;6.30;99.40;;;;;;4950175;28;20087;-81
2023/04/03 00:05:31;;;;;;;1999.90;999.90;;;6.60;98.80;;;;;;4954227;29;20035;-80
2023/04/03 00:07:57;;;;;;;1999.90;999.90;;;3.90;99.90;;;;;;4949862;28;20048;-79
2023/04/03 00:10:23;;;;;;;1999.90;999.90;;;6.50;99.40;;;;;;4952935;29;20051;-79
2023/04/03 00:12:48;;;;;;;1999.90;999.90;;;4.00;99.00;;;;;;4953935;29;20081;-80
2023/04/03 00:15:15;;;;;;;1999.90;999.90;;;;;;;;;;4954272;29;20076;-79
2023/04/03 00:17:40;;;;;;;1999.90;999.90;;;3.00;99.90;;;;;;4955325;29;20063;-79
2023/04/03 00:20:07;;;;;;;1999.90;999.90;;;3.90;99.90;;;;;;4947271;28;20477;-79
2023/04/03 00:22:32;;;;;;;1999.90;999.90;;;4.10;99.90;;;;;;4942973;29;20052;-79
2023/04/03 00:24:58;;;;;;;1999.90;999.90;;;5.00;99.90;;;;;;4948332;29;20070;-79
2023/04/03 00:27:24;;;;;;;1999.90;999.90;;;3.30;99.90;;;;;;4935542;29;20047;-79
2023/04/03 00:29:49;;;;;;;1999.90;999.90;;;4.00;99.10;;;;;;4934995;29;20051;-80
2023/04/03 00:32:15;;;;;;;1999.90;999.90;;;4.70;99.90;;;;;;4933784;29;20050;-80
2023/04/03 00:34:41;;;;;;;1999.90;999.90;;;4.30;99.90;;;;;;4952134;29;20458;-79
2023/04/03 00:37:06;;;;;;;1999.90;999.90;;;5.20;98.10;;;;;;4950973;29;20047;-80
2023/04/03 00:39:32;;;;;;;1999.90;999.90;;;3.10;99.90;;;;;;4954369;29;20043;-79
2023/04/03 00:41:58;;;;;;;1999.90;999.90;;;3.70;98.60;;;;;;4949491;29;20040;-79
2023/04/03 00:44:33;;;;;;;1999.90;999.90;;;6.70;99.90;;;;;;4946003;29;20047;-79
2023/04/03 00:46:59;;;;;;;1999.90;999.90;;;6.40;99.90;;;;;;4952039;29;20051;-79
2023/04/03 00:49:25;;;;;;;1999.90;999.90;;;;;;;;;;4932145;29;20040;-79
2023/04/03 00:51:51;;;;;;;1999.90;999.90;;;3.80;93.30;;;;;;4952325;29;20507;-84
2023/04/03 00:54:17;;;;;;;1999.90;999.90;;;3.90;99.90;;;;;;4942497;29;20134;-79
2023/04/03 00:56:44;;;;;;;1999.90;999.90;;;5.60;99.90;;;;;;4954958;29;20134;-79
2023/04/03 00:59:26;;;;;;;1999.90;999.90;;;5.10;99.90;;;;;;4929372;29;20401;-78
2023/04/03 01:01:54;;;;;;;1999.90;999.90;;;3.50;99.10;;;;;;4939112;29;20094;-79
2023/04/03 01:04:39;;;;;;;1999.90;999.90;;;2.70;99.90;;;;;;4938955;29;20432;-79
2023/04/03 01:07:08;;;;;;;1999.90;999.90;;;4.40;99.90;;;;;;4924762;29;20039;-78
2023/04/03 01:09:35;;;;;;;1999.90;999.90;;;4.70;99.90;;;;;;4950418;29;20154;-78
2023/04/03 01:12:16;;;;;;;1999.90;999.90;;;3.90;99.90;;;;;;4951417;28;20075;-79
2023/04/03 01:14:46;;;;;;;1999.90;999.90;;;5.60;99.90;;;;;;4948691;28;20042;-79
2023/04/03 01:17:32;;;;;;;1999.90;999.90;;;5.80;99.90;;;;;;4939807;28;20066;-78
2023/04/03 01:20:29;;;;;;;1999.90;999.90;;;5.40;99.90;;;;;;4924450;29;20107;-78
2023/04/03 01:23:10;;;;;;;1999.90;999.90;;;3.80;99.90;;;;;;4935165;29;20532;-79
2023/04/03 01:25:42;;;;;;;1999.90;999.90;;;3.90;99.90;;;;;;4952533;29;20511;-79
2023/04/03 01:28:11;;;;;;;1999.90;999.90;;;5.40;99.90;;;;;;4954449;28;20047;-79
2023/04/03 01:31:01;;;;;;;1999.90;999.90;;;4.10;99.90;;;;;;4948645;28;20543;-79
2023/04/03 01:33:26;;;;;;;1999.90;999.90;;;1.20;99.90;;;;;;4937240;29;20059;-79
2023/04/03 01:35:52;;;;;;;1999.90;999.90;;;5.60;99.90;;;;;;4949380;29;20410;-79
2023/04/03 01:38:18;;;;;;;1999.90;999.90;;;2.70;99.90;;;;;;4952780;29;20047;-79
2023/04/03 01:40:43;;;;;;;1999.90;999.90;;;3.00;99.90;;;;;;4957843;29;20071;-79
2023/04/03 01:43:09;;;;;;;1999.90;999.90;;;5.40;99.90;;;;;;4953994;28;20051;-78
2023/04/03 01:45:35;;;;;;;1999.90;999.90;;;2.60;99.90;;;;;;4946910;28;20054;-79
2023/04/03 01:48:01;;;;;;;1999.90;999.90;;;4.60;99.90;;;;;;4926193;29;20039;-79
2023/04/03 01:50:27;;;;;;;1999.90;999.90;;;3.50;99.90;;;;;;4952499;29;20395;-79
2023/04/03 01:52:52;;;;;;;1999.90;999.90;;;5.20;99.90;;;;;;4957973;29;20046;-79
2023/04/03 01:55:18;;;;;;;1999.90;999.90;;;4.10;99.90;;;;;;4952557;29;20124;-79
2023/04/03 01:57:44;;;;;;;1999.90;999.90;;;4.80;99.90;;;;;;4955353;28;20055;-80
2023/04/03 02:00:10;;;;;;;1999.90;999.90;;;2.50;99.90;;;;;;4957077;28;20075;-79
2023/04/03 02:02:36;;;;;;;1999.90;999.90;;;1.70;99.90;;;;;;4953828;28;20051;-80
2023/04/03 02:05:02;;;;;;;1999.90;999.90;;;2.70;99.90;;;;;;4938570;29;20401;-79
2023/04/03 02:07:28;;;;;;;1999.90;999.90;;;;;;;;;;4942854;29;20073;-79
2023/04/03 02:09:53;;;;;;;1999.90;999.90;;;2.70;99.90;;;;;;4951257;29;20145;-79
2023/04/03 02:12:19;;;;;;;1999.90;999.90;;;2.50;99.90;;;;;;4957996;28;20091;-79
2023/04/03 02:14:45;;;;;;;1999.90;999.90;;;5.20;99.90;;;;;;4955731;29;20051;-79
2023/04/03 02:17:10;;;;;;;1999.90;999.90;;;3.00;99.90;;;;;;4957476;29;20059;-79
2023/04/03 02:19:36;;;;;;;1999.90;999.90;;;1.10;99.90;;;;;;4934004;28;20067;-79
2023/04/03 02:22:05;;;;;;;1999.90;999.90;;;4.30;99.90;;;;;;4948066;29;20063;-79
2023/04/03 02:24:32;;;;;;;1999.90;999.90;;;2.40;99.90;;;;;;4945268;29;20048;-79
2023/04/03 02:26:58;;;;;;;1999.90;999.90;;;3.30;99.90;;;;;;4954410;29;20085;-79
2023/04/03 02:29:23;;;;;;;1999.90;999.90;;;2.10;99.90;;;;;;4951036;29;20067;-80
2023/04/03 02:31:50;;;;;;;1999.90;999.90;;;2.20;99.90;;;;;;4956985;29;20047;-80
2023/04/03 02:34:16;;;;;;;1999.90;999.90;;;2.40;99.90;;;;;;4942068;29;20062;-82
2023/04/03 02:36:42;;;;;;;1999.90;999.90;;;;;;;;;;4937532;29;20109;-79
2023/04/03 02:39:08;;;;;;;1999.90;999.90;;;2.40;99.90;;;;;;4936025;29;20515;-80
2023/04/03 02:41:37;;;;;;;1999.90;999.90;;;2.90;99.90;;;;;;4944706;29;20047;-79
2023/04/03 02:44:05;;;;;;;1999.90;999.90;;;2.00;99.90;;;;;;4948670;29;20103;-80
2023/04/03 02:46:31;;;;;;;1999.90;999.90;;;2.70;99.90;;;;;;4942033;29;20059;-80
2023/04/03 02:48:57;;;;;;;1999.90;999.90;;;2.20;99.90;;;;;;4956982;29;20051;-80
2023/04/03 02:51:23;;;;;;;1999.90;999.90;;;3.10;99.90;;;;;;4947301;29;20106;-79
2023/04/03 02:53:50;;;;;;;1999.90;999.90;;;4.70;99.90;;;;;;4956468;29;20051;-80
2023/04/03 02:56:16;;;;;;;1999.90;999.90;;;3.80;99.90;;;;;;4953894;28;20070;-79
2023/04/03 02:58:42;;;;;;;1999.90;999.90;;;2.40;99.90;;;;;;4951057;28;20059;-79
2023/04/03 03:01:08;;;;;;;1999.90;999.90;;;2.90;99.90;;;;;;4955134;29;20094;-79
2023/04/03 03:03:34;;;;;;;1999.90;999.90;;;2.60;99.90;;;;;;4956673;28;20098;-79
2023/04/03 03:06:26;;;;;;;1999.90;999.90;;;4.00;99.90;;;;;;4955670;29;20092;-79
2023/04/03 03:08:52;;;;;;;1999.90;999.90;;;1.80;99.90;;;;;;4924728;29;20059;-79
2023/04/03 03:11:18;;;;;;;1999.90;999.90;;;4.90;99.90;;;;;;4937041;29;20056;-81
2023/04/03 03:13:44;;;;;;;1999.90;999.90;;;-1.00;99.90;;;;;;4932735;29;20409;-79
2023/04/03 03:16:10;;;;;;;1999.90;999.90;;;;;;;;;;4930019;29;20094;-79
2023/04/03 03:18:36;;;;;;;1999.90;999.90;;;;;;;;;;4948788;29;20047;-79
2023/04/03 03:21:03;;;;;;;1999.90;999.90;;;2.00;99.90;;;;;;4945921;29;20050;-79
2023/04/03 03:23:31;;;;;;;1999.90;999.90;;;2.00;99.90;;;;;;4937652;29;20111;-79
2023/04/03 03:26:05;;;;;;;1999.90;999.90;;;3.10;99.90;;;;;;4937029;29;20078;-79
2023/04/03 03:28:31;;;;;;;1999.90;999.90;;;1.70;99.90;;;;;;4943801;29;20597;-80
2023/04/03 03:30:58;;;;;;;1999.90;999.90;;;3.20;99.90;;;;;;4953447;29;20051;-79
2023/04/03 03:33:25;;;;;;;1999.90;999.90;;;3.20;99.90;;;;;;4946136;28;20571;-79
2023/04/03 03:35:51;;;;;;;1999.90;999.90;;;1.30;99.90;;;;;;4955982;28;20059;-80
2023/04/03 03:38:17;;;;;;;1999.90;999.90;;;1.80;99.90;;;;;;4953329;28;20058;-79
2023/04/03 03:40:43;;;;;;;1999.90;999.90;;;2.00;99.90;;;;;;4952919;28;20048;-80
2023/04/03 03:43:09;;;;;;;1999.90;999.90;;;2.30;99.90;;;;;;4952894;28;20054;-79
2023/04/03 03:45:34;;;;;;;1999.90;999.90;;;1.10;99.90;;;;;;4952420;29;20392;-80
2023/04/03 03:48:01;;;;;;;1999.90;999.90;;;;;;;;;;4918623;29;20048;-79
2023/04/03 03:50:26;;;;;;;1999.90;999.90;;;1.10;99.90;;;;;;4927180;29;20050;-79
2023/04/03 03:52:52;;;;;;;1999.90;999.90;;;1.20;99.90;;;;;;4953660;29;20056;-79
2023/04/03 03:55:18;;;;;;;1999.90;999.90;;;1.30;99.90;;;;;;4955219;28;20047;-79
2023/04/03 03:57:44;;;;;;;1999.90;999.90;;;3.40;99.90;;;;;;4953314;28;20035;-79
2023/04/03 04:00:10;;;;;;;1999.90;999.90;;;1.40;99.90;;;;;;4945010;28;20043;-80
2023/04/03 04:02:36;;;;;;;1999.90;925.53;;;;;;;;;;4945712;28;22470;-84
2023/04/03 04:05:02;;;;;;;1999.90;999.90;;;1.50;99.90;;;;;;4932559;29;20051;-80
2023/04/03 04:07:29;;;;;;;1999.90;916.78;;;1.50;99.90;;;;;;4932992;29;20071;-79
2023/04/03 04:09:54;;;;;;;1999.90;999.90;;;1.00;99.90;;;;;;4939117;29;20051;-80
2023/04/03 04:12:21;;;;;;;1999.90;808.28;;;4.40;99.90;;;;;;4941663;29;20047;-79
2023/04/03 04:14:47;;;;;;;1999.90;999.90;;;0.10;99.90;;;;;;4921959;29;20048;-79
2023/04/03 04:17:14;;;;;;;1999.90;999.90;;;2.70;99.90;;;;;;4936205;29;20055;-79
2023/04/03 04:19:40;;;;;;;1999.90;851.30;;;0.60;99.90;;;;;;4942489;29;20130;-83
2023/04/03 04:22:06;;;;;;;1999.90;997.47;;;;;;;;;;4945499;28;20118;-79
2023/04/03 04:24:31;;;;;;;1999.90;992.72;;;1.20;99.90;;;;;;4936498;29;20055;-79
2023/04/03 04:26:57;;;;;;;1999.90;842.13;;;1.70;99.90;;;;;;4932593;29;20041;-78
2023/04/03 04:29:23;;;;;;;1999.90;999.90;;;3.30;99.90;;;;;;4929000;29;20063;-79
2023/04/03 04:31:49;;;;;;;1999.90;999.90;;;1.60;99.90;;;;;;4934503;29;20048;-79
2023/04/03 04:34:15;;;;;;;1999.90;999.90;;;;;;;;;;4934183;29;20083;-81
2023/04/03 04:36:41;;;;;;;1999.90;999.90;;;;;;;;;;4918601;29;20070;-85
2023/04/03 04:39:07;;;;;;;1999.90;955.65;;;2.40;99.90;;;;;;4925484;29;20054;-80
2023/04/03 04:41:34;;;;;;;1999.90;999.90;;;1.90;99.90;;;;;;4923947;29;20731;-80
2023/04/03 04:44:00;;;;;;;1999.90;999.90;;;2.50;99.90;;;;;;4926068;29;20119;-79
2023/04/03 04:46:26;;;;;;;1999.90;855.53;;;3.50;99.90;;;;;;4923537;29;20123;-80
2023/04/03 04:48:51;;;;;;;1999.90;979.20;;;2.50;99.90;;;;;;4927055;29;20043;-79
2023/04/03 04:51:17;;;;;;;1999.90;999.90;;;0.80;99.90;;;;;;4920668;29;20044;-79
2023/04/03 04:53:43;;;;;;;1999.90;755.08;;;1.90;99.90;;;;;;4926118;29;20062;-81
2023/04/03 04:56:09;;;;;;;1999.90;999.90;;;3.30;99.90;;;;;;4932206;28;20126;-79
2023/04/03 04:58:35;;;;;;;1999.90;999.90;;;0.60;99.90;;;;;;4938410;29;20435;-79
2023/04/03 05:01:02;;;;;;;1999.90;999.90;;;1.50;99.90;;;;;;4939085;29;20082;-80
2023/04/03 05:03:28;;;;;;;1999.90;999.90;;;1.00;99.90;;;;;;4944834;29;20479;-80
2023/04/03 05:05:54;;;;;;;1999.90;999.90;;;2.10;99.90;;;;;;4938150;28;20039;-80
2023/04/03 05:08:20;;;;;;;1999.90;910.28;;;2.40;99.90;;;;;;4938367;28;20051;-80
2023/04/03 05:10:46;;;;;;;1999.90;994.58;;;0.60;99.90;;;;;;4924216;28;20035;-81
2023/04/03 05:13:12;;;;;;;1999.90;999.90;;;2.30;99.90;;;;;;4927455;29;20052;-80
2023/04/03 05:15:38;;;;;;;1999.90;999.90;;;3.50;99.90;;;;;;4921781;29;20083;-82
2023/04/03 05:18:04;;;;;;;1999.90;999.90;;;0.50;99.90;;;;;;4927391;29;20457;-80
2023/04/03 05:20:31;;;;;;;1999.90;999.90;;;2.50;99.90;;;;;;4933178;29;20051;-79
2023/04/03 05:22:57;;;;;;;1999.90;999.90;;;1.70;99.90;;;;;;4937581;29;20101;-80
2023/04/03 05:25:22;;;;;;;1999.90;999.90;;;4.10;99.90;;;;;;4933301;29;20499;-80
2023/04/03 05:27:49;;;;;;;1999.90;999.90;;;;;;;;;;4925900;29;20039;-80
2023/04/03 05:30:14;;;;;;;1999.90;999.90;;;2.40;99.90;;;;;;4928858;29;20048;-79
2023/04/03 05:32:40;;;;;;;1999.90;999.90;;;1.20;99.90;;;;;;4953663;28;20124;-80
2023/04/03 05:35:07;;;;;;;1999.90;999.90;;;1.20;99.90;;;;;;4939561;28;20492;-77
2023/04/03 05:37:33;;;;;;;1999.90;952.35;;;1.30;99.90;;;;;;4938031;28;20048;-80
2023/04/03 05:39:59;;;;;;;1999.90;999.90;;;1.10;99.90;;;;;;4942086;29;20047;-79
2023/04/03 05:42:24;;;;;;;1999.90;999.90;;;2.70;99.90;;;;;;4937746;29;20055;-78
2023/04/03 05:44:51;;;;;;;1999.90;999.90;;;;;;;;;;4951537;28;20047;-81
2023/04/03 05:47:17;;;;;;;1999.90;999.90;;;1.60;99.90;;;;;;4917673;29;20615;-77
2023/04/03 05:49:45;;;;;;;1999.90;964.78;;;3.80;99.90;;;;;;4930652;29;20039;-78
2023/04/03 05:52:27;;;;;;;1999.90;999.90;;;2.70;99.90;;;;;;4942299;28;20055;-80
2023/04/03 05:54:53;;;;;;;1999.90;773.08;;;1.60;99.90;;;;;;4947163;29;20051;-77
2023/04/03 05:57:19;;;;;;;1999.90;480.77;;;1.70;99.90;;;;;;4950999;28;20056;-80
2023/04/03 05:59:46;;;;;;;1999.90;999.90;;;1.70;99.90;;;;;;4947252;29;20036;-80
2023/04/03 06:02:21;;;;;;;1999.90;999.90;;;1.60;99.90;;;;;;4938826;29;20087;-79
2023/04/03 06:04:47;;;;;;;1999.90;999.90;;;;;;;;;;4943247;29;20120;-81
2023/04/03 06:07:27;;;;;;;1999.90;864.00;;;1.00;99.90;;;;;;4950094;28;20090;-80
2023/04/03 06:09:53;;;;;;;1999.90;999.90;;;;;;;;;;4920817;29;20127;-81
2023/04/03 06:12:20;;;;;;;1999.90;655.45;;;2.00;99.90;;;;;;4941450;29;20054;-82
2023/04/03 06:14:46;;;;;;;1999.90;999.90;;;2.80;99.90;;;;;;4907538;29;20074;-79
2023/04/03 06:17:12;;;;;;;1999.90;894.83;;;3.40;99.90;;;;;;4926016;29;20506;-80
2023/04/03 06:19:38;;;;;;;1999.90;999.90;;;3.20;99.90;;;;;;4929782;29;20119;-79
2023/04/03 06:22:03;;;;;;;1999.90;999.90;;;2.00;99.90;;;;;;4933777;28;20051;-80
2023/04/03 06:24:30;;;;;;;1999.90;999.90;;;3.20;99.90;;;;;;4947819;29;20055;-80
2023/04/03 06:26:57;;;;;;;1999.90;999.90;;;1.50;99.90;;;;;;4954832;28;20377;-80
2023/04/03 06:29:23;;;;;;;1999.90;626.25;;;3.90;99.90;;;;;;4955912;28;20061;-80
2023/04/03 06:31:50;;;;;;;1999.90;999.90;;;4.60;99.90;;;;;;4945220;29;20050;-80
2023/04/03 06:34:16;;;;;;;1999.90;999.90;;;2.50;99.90;;;;;;4955370;28;20520;-80
2023/04/03 06:36:43;;;;;;;1999.90;999.90;;;1.90;99.90;;;;;;4954300;28;20058;-79
2023/04/03 06:39:16;;;;;;;1999.90;999.90;;;2.50;99.90;;;;;;4942363;28;20071;-80
2023/04/03 06:41:42;;;;;;;1999.90;793.67;;;;;;;;;;4940962;28;20035;-85
2023/04/03 06:44:10;;;;;;;1999.90;999.90;;;1.60;99.90;;;;;;4924633;29;20043;-82
2023/04/03 06:46:38;;;;;;;1999.90;478.83;;;3.20;99.90;;;;;;4933610;29;20052;-80
2023/04/03 06:49:04;;;;;;;1999.90;556.75;;;2.30;99.90;;;;;;4942141;29;20125;-80
2023/04/03 06:51:30;;;;;;;1999.90;754.38;;;;;;;;;;4951537;28;20141;-80
2023/04/03 06:54:00;;;;;;;1999.90;999.90;;;2.80;99.90;;;;;;4940880;29;20114;-82
2023/04/03 06:56:26;;;;;;;1999.90;838.70;;;4.80;99.90;;;;;;4938265;29;20086;-80
2023/04/03 06:59:00;;;;;;;1999.90;999.90;;;4.20;99.90;;;;;;4938409;28;20480;-80
2023/04/03 07:01:28;;;;;;;1999.90;999.90;;;3.00;99.90;;;;;;4939315;29;20043;-80
2023/04/03 07:03:54;;;;;;;1999.90;856.28;;;3.30;99.90;;;;;;4945155;28;20047;-82
2023/04/03 07:06:20;;;;;;;1999.90;999.90;;;3.20;99.90;;;;;;4941681;28;20440;-80
2023/04/03 07:08:48;;;;;;;1999.90;468.27;;;3.50;99.90;;;;;;4956063;28;20070;-80
2023/04/03 07:11:14;;;;;;;1999.90;999.90;;;2.70;99.90;;;;;;4952310;28;20074;-80
2023/04/03 07:13:40;;;;;;;1999.90;999.90;;;2.30;99.90;;;;;;4944352;28;20110;-80
2023/04/03 07:16:06;;;;;;;1999.90;999.90;;;3.50;99.90;;;;;;4932294;29;20191;-80
2023/04/03 07:18:33;;;;;;;1999.90;999.90;;;3.60;99.90;;;;;;4936343;29;20044;-80
2023/04/03 07:20:59;;;;;;;1999.90;999.90;;;4.80;99.90;;;;;;4933190;29;20039;-80
2023/04/03 07:23:25;;;;;;;1999.90;999.90;;;3.70;99.90;;;;;;4947798;29;20069;-80
2023/04/03 07:25:51;;;;;;;1999.90;999.90;;;4.40;99.90;;;;;;4949786;28;20480;-80
2023/04/03 07:28:20;;;;;;;1999.90;999.90;;;4.20;99.90;;;;;;4943790;29;20050;-80
2023/04/03 07:30:51;;;;;;;1999.90;836.38;;;5.10;99.90;;;;;;4954370;28;20062;-79
2023/04/03 07:33:18;;;;;;;1999.90;999.90;;;3.60;99.90;;;;;;4949230;28;20050;-79
2023/04/03 07:35:45;;;;;;;1999.90;999.90;;;6.30;99.90;;;;;;4951534;28;20109;-80
2023/04/03 07:38:11;;;;;;;1999.90;999.90;;;3.70;99.90;;;;;;4947087;28;20053;-80
2023/04/03 07:40:38;;;;;;;1999.90;938.00;;;6.80;99.90;;;;;;4955326;28;20126;-80
2023/04/03 07:43:04;;;;;;;1999.90;999.90;;;9.90;99.90;;;;;;4944599;28;20506;-81
2023/04/03 07:45:31;;;;;;;1999.90;999.90;;;8.60;99.90;;;;;;4941961;28;20485;-80
2023/04/03 07:47:57;;;;;;;1999.90;945.10;;;10.10;99.90;;;;;;4931112;29;20119;-80
2023/04/03 07:50:22;;;;;;;1999.90;999.90;;;11.90;99.90;;;;;;4944007;28;20056;-80
2023/04/03 07:52:50;;;;;;;1999.90;999.90;;;13.70;98.00;;;;;;4951513;29;20047;-80
2023/04/03 07:55:16;;;;;;;1999.90;999.90;;;14.50;80.80;;;;;;4949908;28;20133;-80
2023/04/03 07:57:43;;;;;;;1999.90;999.90;;;;;;;;;;4944706;28;20040;-80
2023/04/03 08:00:09;;;;;;;1999.90;999.90;;;14.90;14.60;;;;;;4933996;28;20488;-83
2023/04/03 08:02:35;;;;;;;1999.90;999.90;;;15.50;28.70;;;;;;4947230;29;20065;-80
2023/04/03 08:05:01;;;;;;;1999.90;999.90;;;16.40;28.00;;;;;;4953682;29;20472;-80
2023/04/03 08:07:27;;;;;;;1999.90;999.90;;;17.00;17.30;;;;;;4954473;29;20047;-83
2023/04/03 08:09:52;;;;;;;1999.90;999.90;;;17.50;12.80;;;;;;4941565;29;20035;-81
2023/04/03 08:12:18;;;;;;;1999.90;999.90;;;17.60;1.00;;;;;;4938061;28;20516;-80
2023/04/03 08:14:44;;;;;;;1999.90;999.90;;;17.70;1.00;;;;;;4929041;29;20472;-80
2023/04/03 08:17:11;;;;;;;1999.90;999.90;;;16.10;1.00;;;;;;4934472;29;20060;-81
2023/04/03 08:19:40;;;;;;;1999.90;999.90;;;16.50;1.00;;;;;;4949796;28;20051;-80
2023/04/03 08:22:06;;;;;;;1999.90;999.90;;;17.20;1.00;;;;;;4929772;29;20046;-82
2023/04/03 08:24:33;;;;;;;1999.90;999.90;;;17.30;1.00;;;;;;4944548;29;20181;-81
2023/04/03 08:26:58;;;;;;;1999.90;999.90;;;17.80;1.00;;;;;;4921536;29;20071;-82
2023/04/03 08:29:25;;;;;;;1999.90;999.90;;;18.50;1.00;;;;;;4929548;29;20071;-81
2023/04/03 08:31:51;;;;;;;1999.90;952.50;;;17.80;1.00;;;;;;4927721;29;20131;-80
2023/04/03 08:34:17;;;;;;;1999.90;857.72;;;17.50;1.00;;;;;;4915656;29;20099;-83
2023/04/03 08:36:43;;;;;;;1999.90;999.90;;;17.30;1.00;;;;;;4929328;29;20118;-81
2023/04/03 08:39:10;;;;;;;1999.90;999.90;;;17.80;1.00;;;;;;4949139;29;20182;-82
2023/04/03 08:41:42;;;;;;;1999.90;999.90;;;18.50;1.00;;;;;;4945412;28;20043;-81
2023/04/03 08:44:22;;;;;;;1999.90;999.90;;;19.20;1.00;;;;;;4935038;28;20050;-89
2023/04/03 08:47:11;;;;;;;1999.90;999.90;;;19.40;1.00;;;;;;4951081;28;20097;-81
2023/04/03 08:49:55;;;;;;;1999.90;999.90;;;18.80;1.00;;;;;;4950013;28;20047;-81
2023/04/03 08:52:34;;;;;;;1999.90;781.22;;;19.50;1.00;;;;;;4949419;29;20043;-82
2023/04/03 08:55:31;;;;;;;1675.38;510.60;;;20.10;1.00;;;;;;4921277;29;20066;-81
2023/04/03 08:58:05;;;;;;;1999.90;999.90;;;20.70;1.00;;;;;;4931888;29;20524;-81
2023/04/03 09:00:55;;;;;;;1999.90;999.90;;;21.60;1.00;;;;;;4923183;29;20059;-81
2023/04/03 09:03:22;;;;;;;1999.90;999.90;;;22.00;1.00;;;;;;4923379;29;20051;-81
2023/04/03 09:06:11;;;;;;;1999.90;999.90;;;21.00;1.00;;;;;;4939665;28;20122;-82
2023/04/03 09:09:15;;;;;;;1999.90;999.90;;;21.10;1.00;;;;;;4929834;29;20043;-81
2023/04/03 09:11:56;;;;;;;1707.28;783.78;;;20.60;1.00;;;;;;4932854;29;20050;-83
2023/04/03 09:14:58;;;;;;;1999.90;999.90;;;20.30;1.00;;;;;;4932139;29;20114;-86
2023/04/03 09:17:30;;;;;;;1999.90;999.90;;;18.60;1.00;;;;;;4931157;29;20063;-82
2023/04/03 09:20:27;;;;;;;1999.90;507.17;;;19.40;1.00;;;;;;4930310;29;20123;-81
2023/04/03 09:22:54;;;;;;;1999.90;999.90;;;19.60;1.00;;;;;;4914113;29;20062;-81
2023/04/03 09:25:24;;;;;;;1999.90;999.90;;;20.60;1.00;;;;;;4924308;28;20035;-81
2023/04/03 09:27:51;;;;;;;1999.90;999.90;;;19.90;1.00;;;;;;4939483;28;20067;-84
2023/04/03 09:30:27;;;;;;;1999.90;999.90;;;20.50;1.00;;;;;;4932992;29;20031;-82
2023/04/03 09:32:55;;;;;;;1999.90;999.90;;;21.40;1.00;;;;;;4923532;29;20384;-81
2023/04/03 09:35:21;;;;;;;1999.90;999.90;;;19.40;1.00;;;;;;4932359;29;20480;-87
2023/04/03 09:38:13;;;;;;;1999.90;999.90;;;19.60;1.00;;;;;;4931384;29;20176;-82
2023/04/03 09:40:47;;;;;;;1999.90;999.90;;;19.50;1.00;;;;;;4935897;29;20051;-83
2023/04/03 09:43:31;;;;;;;1999.90;999.90;;;19.60;1.00;;;;;;4934395;29;20403;-81
2023/04/03 09:46:30;;;;;;;1999.90;999.90;;;20.40;1.00;;;;;;4950498;28;20047;-81
2023/04/03 09:49:03;;;;;;;1999.90;999.90;;;20.70;1.00;;;;;;4949623;28;20047;-81
2023/04/03 09:51:31;;;;;;;1999.90;999.90;;;20.40;1.00;;;;;;4952194;29;20123;-82
2023/04/03 09:53:56;;;;;;;1999.90;999.90;;;20.50;1.00;;;;;;4951564;28;20047;-82
2023/04/03 09:56:26;;;;;;;1999.90;999.90;;;21.00;1.00;;;;;;4957113;28;20047;-81
2023/04/03 09:58:58;;;;;;;1999.90;999.90;;;21.20;1.00;;;;;;4955196;28;20046;-82
2023/04/03 10:01:37;;;;;;;1999.90;999.90;;;21.70;1.00;;;;;;4936148;29;20507;-81
2023/04/03 10:04:10;;;;;;;1999.90;999.90;;;21.90;1.00;;;;;;4940681;29;20396;-82
2023/04/03 10:06:48;;;;;;;1999.90;999.90;;;21.50;1.00;;;;;;4956727;28;20058;-82
2023/04/03 10:09:24;;;;;;;1999.90;999.90;;;21.90;1.00;;;;;;4953234;29;20110;-82
2023/04/03 10:12:11;;;;;;;1999.90;999.90;;;21.30;1.00;;;;;;4953747;28;20309;-81
2023/04/03 10:14:41;;;;;;;1999.90;999.90;;;21.40;1.00;;;;;;4941565;29;20188;-81
2023/04/03 10:17:19;;;;;;;1999.90;999.90;;;21.80;1.00;;;;;;4949213;28;20401;-82
2023/04/03 10:20:11;;;;;;;;;;;21.90;1.00;;;;;;4957663;28;20050;-81
2023/04/03 10:22:45;;;;;;;1999.90;999.90;;;22.30;1.00;;;;;;4928976;29;19930;-80
2023/04/03 10:25:11;;;;;;;1999.90;999.90;;;22.50;1.00;;;;;;4945757;28;20785;-81
2023/04/03 10:27:54;;;;;;;1999.90;999.90;;;23.00;1.00;;;;;;4956614;29;20074;-82
2023/04/03 10:30:42;;;;;;;1999.90;999.90;;;22.60;1.00;;;;;;4954729;29;20058;-81
2023/04/03 10:33:33;;;;;;;1999.90;999.90;;;23.10;1.00;;;;;;4951300;29;20170;-83
2023/04/03 10:36:20;;;;;;;1999.90;999.90;;;23.40;1.00;;;;;;4951832;28;20491;-81
2023/04/03 10:38:59;;;;;;;1999.90;999.90;;;23.60;1.00;;;;;;4957010;29;20051;-84
2023/04/03 10:41:49;;;;;;;1999.90;999.90;;;23.40;1.00;;;;;;4956493;29;20428;-82
2023/04/03 10:44:37;;;;;;;1999.90;999.90;;;22.80;1.00;;;;;;4952576;29;20558;-84
2023/04/03 10:47:29;;;;;;;1999.90;999.90;;;23.10;1.00;;;;;;4949710;28;20131;-81
2023/04/03 10:50:26;;;;;;;1999.90;999.90;;;21.60;1.00;;;;;;4951582;28;20346;-81
2023/04/03 10:53:03;;;;;;;1999.90;999.90;;;22.30;1.00;;;;;;4955515;28;20092;-82
2023/04/03 10:55:53;;;;;;;1999.90;999.90;;;22.10;1.00;;;;;;4952929;28;20500;-81
2023/04/03 10:58:29;;;;;;;1999.90;999.90;;;20.60;1.00;;;;;;4932236;29;20051;-81
2023/04/03 11:01:01;;;;;;;1999.90;999.90;;;20.40;1.00;;;;;;4936854;28;20047;-81
2023/04/03 11:03:40;;;;;;;1999.90;999.90;;;21.30;1.00;;;;;;4946179;29;20055;-81
2023/04/03 11:06:09;;;;;;;1999.90;999.90;;;21.40;1.00;;;;;;4954866;28;20558;-81
2023/04/03 11:08:56;;;;;;;1999.90;999.90;;;21.50;1.00;;;;;;4950998;28;20095;-81
2023/04/03 11:11:32;;;;;;;1999.90;999.90;;;22.20;1.00;;;;;;4945441;28;20463;-81
2023/04/03 11:14:23;;;;;;;1999.90;999.90;;;22.70;1.00;;;;;;4954556;29;20047;-81
2023/04/03 11:17:04;;;;;;;1999.90;999.90;;;23.20;1.00;;;;;;4949556;28;20039;-83
2023/04/03 11:19:50;;;;;;;1999.90;999.90;;;23.10;1.00;;;;;;4939054;29;20130;-81
2023/04/03 11:22:28;;;;;;;1999.90;999.90;;;23.10;1.00;;;;;;4949128;28;20122;-81
2023/04/03 11:25:10;;;;;;;1999.90;999.90;;;23.20;1.00;;;;;;4954296;28;20039;-82
2023/04/03 11:27:58;;;;;;;1999.90;999.90;;;23.50;1.00;;;;;;4946049;29;20507;-81
2023/04/03 11:30:41;;;;;;;1999.90;999.90;;;23.90;1.00;;;;;;4935097;29;20524;-81
2023/04/03 11:33:28;;;;;;;1999.90;999.90;;;22.70;1.00;;;;;;4944054;29;20046;-82
2023/04/03 11:35:59;;;;;;;1999.90;999.90;;;23.30;1.00;;;;;;4955322;29;20047;-83
2023/04/03 11:38:36;;;;;;;1999.90;999.90;;;23.10;1.00;;;;;;4950678;29;20502;-86
2023/04/03 11:41:07;;;;;;;1999.90;999.90;;;23.50;1.00;;;;;;4940073;29;20138;-81
2023/04/03 11:43:39;;;;;;;1999.90;999.90;;;23.70;1.00;;;;;;4952295;28;20055;-82
2023/04/03 11:46:06;;;;;;;1999.90;999.90;;;23.00;1.00;;;;;;4942501;28;20401;-81
2023/04/03 11:48:35;;;;;;;1999.90;999.90;;;23.80;1.00;;;;;;4939877;28;20381;-81
2023/04/03 11:51:13;;;;;;;1999.90;999.90;;;23.80;1.00;;;;;;4952739;28;20070;-82
2023/04/03 11:53:40;;;;;;;1999.90;999.90;;;22.80;1.00;;;;;;4942596;29;20125;-81
2023/04/03 11:56:18;;;;;;;1999.90;999.90;;;21.80;1.00;;;;;;4954269;28;20058;-82
2023/04/03 11:59:13;;;;;;;1999.90;999.90;;;22.50;1.00;;;;;;4955010;29;20054;-81
2023/04/03 12:01:55;;;;;;;1999.90;999.90;;;22.10;1.00;;;;;;4935402;28;20060;-81
2023/04/03 12:04:23;;;;;;;1999.90;999.90;;;22.40;1.00;;;;;;4929928;29;20056;-81
2023/04/03 12:07:04;;;;;;;1999.90;999.90;;;22.20;1.00;;;;;;4955137;28;20404;-82
2023/04/03 12:09:33;;;;;;;1999.90;999.90;;;22.40;1.00;;;;;;4954714;28;20484;-81
2023/04/03 12:12:01;;;;;;;1999.90;999.90;;;22.70;1.00;;;;;;4952572;28;20459;-81
2023/04/03 12:14:28;;;;;;;1999.90;999.90;;;22.60;1.00;;;;;;4948694;28;20051;-82
2023/04/03 12:16:57;;;;;;;1999.90;999.90;;;22.90;1.00;;;;;;4940619;28;20457;-87
2023/04/03 12:19:29;;;;;;;1690.90;786.42;;;23.20;1.00;;;;;;4935818;29;20070;-81
2023/04/03 12:21:58;;;;;;;1999.90;999.90;;;23.10;1.00;;;;;;4930854;29;20051;-81
2023/04/03 12:24:29;;;;;;;1999.90;999.90;;;22.30;1.00;;;;;;4931240;29;20130;-80
2023/04/03 12:26:59;;;;;;;1999.90;999.90;;;21.20;1.00;;;;;;4955029;28;20055;-80
2023/04/03 12:29:34;;;;;;;1999.90;999.90;;;19.50;1.00;;;;;;4951798;28;20459;-81